ADDS METAR Data INFO
IDs: Format: Raw Decoded Include TAF

Data at: 0213 UTC 17 Aug 2018

PAEN 170153Z 23010KT 10SM CLR 14/08 A3001 RMK AO2 SLP162 T01390083
PAEN 170053Z 22009KT 10SM CLR 14/07 A3000 RMK AO2 SLP159 T01440072
PAEN 162353Z 23008KT 10SM CLR 14/08 A3000 RMK AO2 SLP161 T01440078 10150 20117 50000
PAEN 162253Z 23010KT 10SM SCT090 14/08 A3000 RMK AO2 SLP161 T01440078
PAEN 162153Z 24008KT 10SM OVC080 13/08 A3001 RMK AO2 SLP162 T01330078
PAEN 162053Z 21010KT 10SM FEW017 BKN080 13/08 A3000 RMK AO2 SLP161 T01330083 51004
PAEN 161953Z 21009KT 10SM FEW012 OVC080 12/09 A3000 RMK AO2 SLP161 T01220089
PAEN 161853Z 20007KT 10SM FEW013 OVC090 12/09 A3000 RMK AO2 SLP159 T01170089
PAEN 161844Z 21008KT 10SM SCT013 OVC090 12/08 A3000 RMK AO2 T01170083
PAEN 161816Z VRB03KT 10SM BKN012 BKN095 12/09 A2999 RMK AO2 T01220094
PAEN 161753Z 17005KT 10SM SCT085 BKN110 12/09 A2999 RMK AO2 SLP157 60010 T01170094 10117 20094 50004
PAEN 161653Z 12005KT 10SM FEW043 OVC085 11/09 A2999 RMK AO2 SLP159 T01060089
PAEN 161553Z 13005KT 10SM OVC055 10/09 A2998 RMK AO2 RAE45 SLP155 P0003 T01000089
PAEN 161453Z 15005KT 9SM -RA OVC060 10/09 A2998 RMK AO2 SLP153 P0003 60007 T01000089 52000
PAEN 161353Z 13003KT 10SM -RA OVC075 09/08 A2998 RMK AO2 SLP153 P0002 T00940083
PAEN 161253Z AUTO 16003KT 10SM -RA OVC065 10/08 A2997 RMK AO2 SLP151 P0002 T01000083 TSNO
PAEN 161153Z AUTO 00000KT 10SM -RA OVC070 10/08 A2998 RMK AO2 SLP152 P0000 60014 70014 T01000083 10117 20100 51001 TSNO
PAEN 161053Z AUTO 16004KT 10SM -RA OVC075 10/08 A2997 RMK AO2 SLP151 P0003 T01000083 TSNO
PAEN 160953Z AUTO 18007KT 10SM -RA OVC060 11/08 A2998 RMK AO2 SLP153 P0005 T01060083 TSNO
PAEN 160853Z AUTO 19007KT 9SM -RA BKN048 OVC060 11/09 A2997 RMK AO2 SLP151 P0003 60006 T01060089 401560050 53006 TSNO
PAEN 160753Z AUTO 16005KT 10SM -RA OVC047 11/09 A2997 RMK AO2 SLP149 P0003 T01110089 TSNO
PAEN 160653Z AUTO 18006KT 10SM -RA OVC043 12/08 A2996 RMK AO2 RAB42 SLP147 P0000 T01170083 TSNO
PAEN 160553Z 16004KT 10SM OVC038 12/08 A2996 RMK AO2 RAE08 SLP145 P0000 60000 T01170083 10156 20117 53005
PAEN 160453Z 21006KT 10SM -RA OVC035 12/08 A2995 RMK AO2 RAB18E27B51 SLP142 P0000 T01170083
PAEN 160353Z 21008KT 10SM SCT034 OVC060 12/08 A2994 RMK AO2 RAB10E19 SLP141 SHRA N-E P0000 T01220078
PAEN 160253Z 23008KT 10SM BKN035 OVC046 12/08 A2994 RMK AO2 SLP141 SHRA NE-E T01220083 53000
PAEN 160153Z 25009KT 10SM SCT034 13/08 A2994 RMK AO2 SLP141 T01330078
PAEN 160053Z 24010KT 10SM SCT040 15/08 A2994 RMK AO2 SLP139 T01500078
PAEN 152353Z COR 29005KT 10SM SCT040 16/08 A2994 RMK AO2 SLP139 T01560078 10156 20122 58002
PAEN 152253Z VRB04KT 10SM SCT040 15/07 A2994 RMK AO2 SLP141 T01500072
PAEN 152153Z 25007KT 10SM FEW042 14/08 A2995 RMK AO2 SLP142 T01440078
PAEN 152053Z 28006KT 10SM CLR 14/08 A2994 RMK AO2 SLP141 T01440083 50003
PAEN 151953Z 23006KT 10SM CLR 14/08 A2995 RMK AO2 SLP141 T01390078
PAEN 151853Z 23006KT 10SM CLR 13/07 A2994 RMK AO2 SLP141 T01280072
PAEN 151753Z 17004KT 10SM CLR 12/07 A2993 RMK AO2 SLP138 T01220072 10122 20050 53010
PAEN 151653Z 19005KT 10SM CLR 11/07 A2992 RMK AO2 SLP134 T01110072
PAEN 151553Z 00000KT 10SM CLR 07/06 A2991 RMK AO2 SLP131 T00720056
PAEN 151453Z 00000KT 9SM CLR 05/04 A2990 RMK AO2 SLP128 T00500044 53009